HBXWW EHTE-EHSE
Flight info
| Callsign | HBXWW |
|---|---|
| Flight time | 0h 54m |
| Altitude | 1200 |
| Route | AFORT UTRCT GCHEM 514114N0045304E 513842N0044135E EHSEZ |
| Aircraft | H500/L-SDGY/S |
Departure
| Time | 2026-04-27 09:13 |
|---|---|
| Airport | Teuge Airport (EHTE) |
Arrival
| Time | 2026-04-27 10:08 |
|---|---|
| Airport | Breda International Airport (EHSE) |
| Time | Latitude | Longitude | Altitude | Speed | Heading |
|---|---|---|---|---|---|
| 2026-04-27 08:58 | 52.24176 | 6.05296 | 21 ft | 0 kts | 87° |
| 2026-04-27 09:10 | 52.24176 | 6.05290 | 22 ft | 0 kts | 82° |
| 2026-04-27 09:10 | 52.24176 | 6.05318 | 26 ft | 6 kts | 83° |
| 2026-04-27 09:11 | 52.24182 | 6.05343 | 25 ft | 1 kts | 14° |
| 2026-04-27 09:11 | 52.24205 | 6.05314 | 22 ft | 10 kts | 263° |
| 2026-04-27 09:11 | 52.24198 | 6.05198 | 26 ft | 8 kts | 270° |
| 2026-04-27 09:11 | 52.24233 | 6.05182 | 36 ft | 6 kts | 15° |
| 2026-04-27 09:12 | 52.24255 | 6.05192 | 41 ft | 11 kts | 7° |
| 2026-04-27 09:12 | 52.24289 | 6.05193 | 37 ft | 4 kts | 89° |
| 2026-04-27 09:12 | 52.24306 | 6.05474 | 69 ft | 38 kts | 84° |
| 2026-04-27 09:12 | 52.24320 | 6.05912 | 204 ft | 43 kts | 84° |
| 2026-04-27 09:13 | 52.24355 | 6.06479 | 306 ft | 53 kts | 84° |
| 2026-04-27 09:13 | 52.24393 | 6.07041 | 476 ft | 52 kts | 62° |
| 2026-04-27 09:13 | 52.24655 | 6.07454 | 639 ft | 54 kts | 42° |
| 2026-04-27 09:13 | 52.24943 | 6.07941 | 708 ft | 66 kts | 45° |
| 2026-04-27 09:14 | 52.25278 | 6.08520 | 722 ft | 74 kts | 43° |
| 2026-04-27 09:14 | 52.25682 | 6.09093 | 732 ft | 77 kts | 38° |
| 2026-04-27 09:14 | 52.26108 | 6.09615 | 763 ft | 76 kts | 31° |
| 2026-04-27 09:14 | 52.26599 | 6.09598 | 845 ft | 72 kts | 326° |
| 2026-04-27 09:15 | 52.26817 | 6.08933 | 977 ft | 66 kts | 278° |
| 2026-04-27 09:15 | 52.26830 | 6.08150 | 1064 ft | 71 kts | 267° |
| 2026-04-27 09:15 | 52.26813 | 6.07340 | 1182 ft | 74 kts | 267° |
| 2026-04-27 09:15 | 52.26826 | 6.06368 | 1189 ft | 94 kts | 271° |
| 2026-04-27 09:16 | 52.26861 | 6.05248 | 1183 ft | 101 kts | 272° |
| 2026-04-27 09:16 | 52.26920 | 6.04133 | 1182 ft | 97 kts | 274° |
| 2026-04-27 09:16 | 52.26991 | 6.03047 | 1187 ft | 96 kts | 276° |
| 2026-04-27 09:16 | 52.27072 | 6.01968 | 1166 ft | 98 kts | 275° |
| 2026-04-27 09:17 | 52.27046 | 6.01223 | 1182 ft | 97 kts | 257° |
| 2026-04-27 09:17 | 52.26827 | 6.00171 | 1198 ft | 98 kts | 245° |
| 2026-04-27 09:17 | 52.26564 | 5.99127 | 1192 ft | 100 kts | 242° |
| 2026-04-27 09:17 | 52.26132 | 5.97810 | 1185 ft | 99 kts | 234° |
| 2026-04-27 09:18 | 52.25770 | 5.96850 | 1168 ft | 97 kts | 234° |
| 2026-04-27 09:18 | 52.25414 | 5.95927 | 1180 ft | 95 kts | 231° |
| 2026-04-27 09:18 | 52.25003 | 5.95068 | 1173 ft | 96 kts | 226° |
| 2026-04-27 09:18 | 52.24720 | 5.94503 | 1184 ft | 94 kts | 226° |
| 2026-04-27 09:19 | 52.24312 | 5.93668 | 1186 ft | 94 kts | 226° |
| 2026-04-27 09:19 | 52.23867 | 5.92874 | 1184 ft | 95 kts | 225° |
| 2026-04-27 09:19 | 52.23450 | 5.92039 | 1211 ft | 94 kts | 227° |
| 2026-04-27 09:19 | 52.23070 | 5.91161 | 1213 ft | 97 kts | 229° |
| 2026-04-27 09:20 | 52.22674 | 5.90278 | 1217 ft | 99 kts | 228° |
| 2026-04-27 09:20 | 52.22269 | 5.89362 | 1189 ft | 99 kts | 230° |
| 2026-04-27 09:20 | 52.21902 | 5.88405 | 1173 ft | 100 kts | 236° |
| 2026-04-27 09:20 | 52.21600 | 5.87387 | 1167 ft | 100 kts | 242° |
| 2026-04-27 09:21 | 52.21341 | 5.86353 | 1149 ft | 99 kts | 244° |
| 2026-04-27 09:21 | 52.21119 | 5.85314 | 1171 ft | 97 kts | 249° |
| 2026-04-27 09:21 | 52.20940 | 5.84251 | 1188 ft | 99 kts | 251° |
| 2026-04-27 09:21 | 52.20788 | 5.83160 | 1200 ft | 98 kts | 257° |
| 2026-04-27 09:22 | 52.20694 | 5.82048 | 1177 ft | 100 kts | 260° |
| 2026-04-27 09:22 | 52.20609 | 5.80923 | 1142 ft | 98 kts | 258° |
| 2026-04-27 09:22 | 52.20503 | 5.79849 | 1156 ft | 94 kts | 254° |
| 2026-04-27 09:22 | 52.20265 | 5.78865 | 1174 ft | 94 kts | 240° |
| 2026-04-27 09:23 | 52.20035 | 5.77884 | 1200 ft | 93 kts | 251° |
| 2026-04-27 09:23 | 52.19915 | 5.76827 | 1213 ft | 95 kts | 260° |
| 2026-04-27 09:23 | 52.19837 | 5.75745 | 1215 ft | 97 kts | 261° |
| 2026-04-27 09:23 | 52.19767 | 5.74651 | 1204 ft | 97 kts | 263° |
| 2026-04-27 09:24 | 52.19711 | 5.73561 | 1202 ft | 98 kts | 261° |
| 2026-04-27 09:24 | 52.19600 | 5.72479 | 1195 ft | 96 kts | 257° |
| 2026-04-27 09:24 | 52.19485 | 5.71402 | 1184 ft | 97 kts | 258° |
| 2026-04-27 09:24 | 52.19362 | 5.70315 | 1186 ft | 97 kts | 255° |
| 2026-04-27 09:25 | 52.19173 | 5.69246 | 1168 ft | 98 kts | 245° |
| 2026-04-27 09:25 | 52.18930 | 5.68232 | 1190 ft | 98 kts | 245° |
| 2026-04-27 09:25 | 52.18656 | 5.67200 | 1195 ft | 100 kts | 242° |
| 2026-04-27 09:25 | 52.18317 | 5.66208 | 1199 ft | 99 kts | 236° |
| 2026-04-27 09:26 | 52.17986 | 5.65221 | 1198 ft | 98 kts | 239° |
| 2026-04-27 09:26 | 52.17698 | 5.64203 | 1196 ft | 99 kts | 244° |
| 2026-04-27 09:26 | 52.17462 | 5.63141 | 1202 ft | 98 kts | 252° |
| 2026-04-27 09:26 | 52.17309 | 5.62067 | 1202 ft | 96 kts | 256° |
| 2026-04-27 09:27 | 52.17192 | 5.61009 | 1187 ft | 93 kts | 259° |
| 2026-04-27 09:27 | 52.17111 | 5.59948 | 1182 ft | 96 kts | 262° |
| 2026-04-27 09:27 | 52.17042 | 5.58883 | 1215 ft | 93 kts | 263° |
| 2026-04-27 09:27 | 52.16980 | 5.57815 | 1207 ft | 96 kts | 260° |
| 2026-04-27 09:28 | 52.16911 | 5.56731 | 1207 ft | 96 kts | 262° |
| 2026-04-27 09:28 | 52.16811 | 5.55651 | 1245 ft | 98 kts | 259° |
| 2026-04-27 09:28 | 52.16710 | 5.54544 | 1207 ft | 100 kts | 259° |
| 2026-04-27 09:28 | 52.16619 | 5.53441 | 1186 ft | 97 kts | 260° |
| 2026-04-27 09:29 | 52.16547 | 5.52347 | 1187 ft | 99 kts | 263° |
| 2026-04-27 09:29 | 52.16513 | 5.51216 | 1208 ft | 99 kts | 267° |
| 2026-04-27 09:29 | 52.16522 | 5.50093 | 1193 ft | 99 kts | 270° |
| 2026-04-27 09:29 | 52.16578 | 5.48981 | 1205 ft | 98 kts | 274° |
| 2026-04-27 09:30 | 52.16620 | 5.47863 | 1168 ft | 99 kts | 263° |
| 2026-04-27 09:30 | 52.16550 | 5.46778 | 1203 ft | 98 kts | 263° |
| 2026-04-27 09:30 | 52.16350 | 5.45724 | 1198 ft | 97 kts | 234° |
| 2026-04-27 09:30 | 52.15998 | 5.44795 | 1218 ft | 98 kts | 234° |
| 2026-04-27 09:31 | 52.15635 | 5.43858 | 1201 ft | 100 kts | 233° |
| 2026-04-27 09:31 | 52.15274 | 5.42863 | 1186 ft | 101 kts | 235° |
| 2026-04-27 09:31 | 52.14899 | 5.41914 | 1166 ft | 101 kts | 227° |
| 2026-04-27 09:31 | 52.14435 | 5.41053 | 1167 ft | 101 kts | 219° |
| 2026-04-27 09:32 | 52.13943 | 5.40265 | 1213 ft | 99 kts | 219° |
| 2026-04-27 09:32 | 52.13532 | 5.39366 | 1207 ft | 99 kts | 239° |
| 2026-04-27 09:32 | 52.13264 | 5.38314 | 1168 ft | 102 kts | 245° |
| 2026-04-27 09:32 | 52.13019 | 5.37242 | 1159 ft | 99 kts | 245° |
| 2026-04-27 09:33 | 52.12781 | 5.36193 | 1151 ft | 98 kts | 246° |
| 2026-04-27 09:33 | 52.12555 | 5.35175 | 1161 ft | 95 kts | 248° |
| 2026-04-27 09:33 | 52.12352 | 5.34172 | 1199 ft | 93 kts | 249° |
| 2026-04-27 09:33 | 52.12139 | 5.33171 | 1201 ft | 94 kts | 248° |
| 2026-04-27 09:34 | 52.11938 | 5.32142 | 1207 ft | 99 kts | 250° |
| 2026-04-27 09:34 | 52.11758 | 5.31053 | 1218 ft | 100 kts | 252° |
| 2026-04-27 09:34 | 52.11570 | 5.29972 | 1205 ft | 100 kts | 251° |
| 2026-04-27 09:34 | 52.11372 | 5.28885 | 1177 ft | 99 kts | 251° |
| 2026-04-27 09:35 | 52.11235 | 5.27811 | 1208 ft | 95 kts | 259° |
| 2026-04-27 09:35 | 52.11168 | 5.26742 | 1185 ft | 97 kts | 262° |
| 2026-04-27 09:35 | 52.11075 | 5.25641 | 1186 ft | 99 kts | 258° |
| 2026-04-27 09:35 | 52.10974 | 5.24527 | 1179 ft | 101 kts | 257° |
| 2026-04-27 09:36 | 52.10833 | 5.23410 | 1195 ft | 101 kts | 256° |
| 2026-04-27 09:36 | 52.10684 | 5.22301 | 1205 ft | 102 kts | 253° |
| 2026-04-27 09:36 | 52.10501 | 5.21172 | 1189 ft | 103 kts | 250° |
| 2026-04-27 09:36 | 52.10218 | 5.20130 | 1204 ft | 99 kts | 233° |
| 2026-04-27 09:37 | 52.09877 | 5.19186 | 1226 ft | 95 kts | 236° |
| 2026-04-27 09:37 | 52.09572 | 5.18220 | 1205 ft | 96 kts | 241° |
| 2026-04-27 09:37 | 52.09285 | 5.17228 | 1182 ft | 96 kts | 240° |
| 2026-04-27 09:37 | 52.08879 | 5.16388 | 1188 ft | 95 kts | 207° |
| 2026-04-27 09:38 | 52.08281 | 5.15972 | 1217 ft | 93 kts | 196° |
| 2026-04-27 09:38 | 52.07684 | 5.15516 | 1209 ft | 99 kts | 202° |
| 2026-04-27 09:38 | 52.07079 | 5.14986 | 1185 ft | 98 kts | 198° |
| 2026-04-27 09:38 | 52.06433 | 5.14667 | 1187 ft | 95 kts | 187° |
| 2026-04-27 09:39 | 52.05797 | 5.14415 | 1185 ft | 93 kts | 186° |
| 2026-04-27 09:39 | 52.05185 | 5.14164 | 1206 ft | 91 kts | 186° |
| 2026-04-27 09:39 | 52.04562 | 5.13941 | 1203 ft | 93 kts | 186° |
| 2026-04-27 09:39 | 52.03938 | 5.13613 | 1199 ft | 96 kts | 194° |
| 2026-04-27 09:40 | 52.03364 | 5.13086 | 1230 ft | 96 kts | 216° |
| 2026-04-27 09:40 | 52.02855 | 5.12358 | 1206 ft | 96 kts | 213° |
| 2026-04-27 09:40 | 52.02307 | 5.11745 | 1244 ft | 97 kts | 205° |
| 2026-04-27 09:40 | 52.01679 | 5.11267 | 1203 ft | 100 kts | 195° |
| 2026-04-27 09:41 | 52.01033 | 5.10913 | 1214 ft | 97 kts | 191° |
| 2026-04-27 09:41 | 52.00389 | 5.10604 | 1197 ft | 97 kts | 188° |
| 2026-04-27 09:41 | 51.99737 | 5.10312 | 1209 ft | 97 kts | 188° |
| 2026-04-27 09:41 | 51.99088 | 5.10001 | 1203 ft | 97 kts | 190° |
| 2026-04-27 09:42 | 51.98462 | 5.09641 | 1213 ft | 95 kts | 195° |
| 2026-04-27 09:42 | 51.97866 | 5.09157 | 1222 ft | 97 kts | 205° |
| 2026-04-27 09:42 | 51.97299 | 5.08527 | 1227 ft | 100 kts | 212° |
| 2026-04-27 09:42 | 51.96835 | 5.07700 | 1210 ft | 98 kts | 233° |
| 2026-04-27 09:43 | 51.96566 | 5.06714 | 1202 ft | 95 kts | 249° |
| 2026-04-27 09:43 | 51.96353 | 5.05698 | 1194 ft | 95 kts | 250° |
| 2026-04-27 09:43 | 51.96160 | 5.04659 | 1190 ft | 97 kts | 251° |
| 2026-04-27 09:43 | 51.95971 | 5.03604 | 1182 ft | 97 kts | 251° |
| 2026-04-27 09:44 | 51.95781 | 5.02541 | 1164 ft | 98 kts | 247° |
| 2026-04-27 09:44 | 51.95418 | 5.01627 | 1188 ft | 97 kts | 222° |
| 2026-04-27 09:44 | 51.94904 | 5.00919 | 1182 ft | 98 kts | 212° |
| 2026-04-27 09:44 | 51.94348 | 5.00295 | 1212 ft | 95 kts | 206° |
| 2026-04-27 09:45 | 51.93765 | 4.99750 | 1193 ft | 99 kts | 202° |
| 2026-04-27 09:45 | 51.93153 | 4.99237 | 1198 ft | 99 kts | 199° |
| 2026-04-27 09:45 | 51.92527 | 4.98803 | 1199 ft | 96 kts | 195° |
| 2026-04-27 09:45 | 51.91911 | 4.98394 | 1185 ft | 95 kts | 192° |
| 2026-04-27 09:46 | 51.91284 | 4.98075 | 1193 ft | 94 kts | 191° |
| 2026-04-27 09:46 | 51.90659 | 4.97711 | 1177 ft | 97 kts | 193° |
| 2026-04-27 09:46 | 51.90028 | 4.97320 | 1203 ft | 97 kts | 193° |
| 2026-04-27 09:46 | 51.89399 | 4.96901 | 1191 ft | 98 kts | 197° |
| 2026-04-27 09:47 | 51.88789 | 4.96473 | 1201 ft | 96 kts | 196° |
| 2026-04-27 09:47 | 51.88174 | 4.96062 | 1214 ft | 96 kts | 196° |
| 2026-04-27 09:47 | 51.87543 | 4.95673 | 1218 ft | 99 kts | 194° |
| 2026-04-27 09:47 | 51.86887 | 4.95310 | 1177 ft | 99 kts | 188° |
| 2026-04-27 09:48 | 51.86229 | 4.95053 | 1176 ft | 96 kts | 186° |
| 2026-04-27 09:48 | 51.85580 | 4.94788 | 1169 ft | 96 kts | 185° |
| 2026-04-27 09:48 | 51.84931 | 4.94558 | 1193 ft | 95 kts | 181° |
| 2026-04-27 09:48 | 51.84287 | 4.94364 | 1223 ft | 95 kts | 183° |
| 2026-04-27 09:49 | 51.83623 | 4.94170 | 1214 ft | 95 kts | 182° |
| 2026-04-27 09:49 | 51.82971 | 4.93959 | 1197 ft | 97 kts | 184° |
| 2026-04-27 09:49 | 51.82311 | 4.93741 | 1158 ft | 94 kts | 184° |
| 2026-04-27 09:49 | 51.81669 | 4.93536 | 1173 ft | 94 kts | 184° |
| 2026-04-27 09:50 | 51.81018 | 4.93273 | 1169 ft | 98 kts | 187° |
| 2026-04-27 09:50 | 51.80357 | 4.93028 | 1175 ft | 97 kts | 187° |
| 2026-04-27 09:50 | 51.79686 | 4.92802 | 1187 ft | 100 kts | 181° |
| 2026-04-27 09:50 | 51.79015 | 4.92666 | 1235 ft | 99 kts | 176° |
| 2026-04-27 09:51 | 51.78303 | 4.92641 | 1222 ft | 103 kts | 168° |
| 2026-04-27 09:51 | 51.77596 | 4.92699 | 1220 ft | 101 kts | 169° |
| 2026-04-27 09:51 | 51.76900 | 4.92777 | 1126 ft | 101 kts | 165° |
| 2026-04-27 09:51 | 51.76229 | 4.92720 | 1147 ft | 96 kts | 185° |
| 2026-04-27 09:52 | 51.75598 | 4.92403 | 1177 ft | 95 kts | 191° |
| 2026-04-27 09:52 | 51.74990 | 4.92010 | 1195 ft | 95 kts | 197° |
| 2026-04-27 09:52 | 51.74388 | 4.91530 | 1188 ft | 99 kts | 204° |
| 2026-04-27 09:52 | 51.73813 | 4.90898 | 1196 ft | 100 kts | 211° |
| 2026-04-27 09:53 | 51.73258 | 4.90234 | 1210 ft | 99 kts | 213° |
| 2026-04-27 09:53 | 51.72669 | 4.89620 | 1201 ft | 102 kts | 198° |
| 2026-04-27 09:53 | 51.72011 | 4.89292 | 1217 ft | 101 kts | 187° |
| 2026-04-27 09:53 | 51.71330 | 4.89110 | 1225 ft | 99 kts | 179° |
| 2026-04-27 09:54 | 51.70635 | 4.88998 | 1198 ft | 100 kts | 176° |
| 2026-04-27 09:54 | 51.69952 | 4.88921 | 1185 ft | 97 kts | 178° |
| 2026-04-27 09:54 | 51.69333 | 4.88573 | 1181 ft | 99 kts | 212° |
| 2026-04-27 09:54 | 51.68888 | 4.87737 | 1178 ft | 97 kts | 236° |
| 2026-04-27 09:55 | 51.68593 | 4.86755 | 1204 ft | 97 kts | 244° |
| 2026-04-27 09:55 | 51.68324 | 4.85726 | 1216 ft | 103 kts | 248° |
| 2026-04-27 09:55 | 51.67837 | 4.83599 | 1209 ft | 100 kts | 250° |
| 2026-04-27 09:56 | 51.67607 | 4.82543 | 1197 ft | 99 kts | 247° |
| 2026-04-27 09:56 | 51.67362 | 4.81532 | 1189 ft | 95 kts | 247° |
| 2026-04-27 09:56 | 51.67120 | 4.80529 | 1203 ft | 97 kts | 244° |
| 2026-04-27 09:56 | 51.66845 | 4.79545 | 1206 ft | 97 kts | 243° |
| 2026-04-27 09:57 | 51.66559 | 4.78565 | 1210 ft | 97 kts | 241° |
| 2026-04-27 09:57 | 51.66230 | 4.77585 | 1210 ft | 101 kts | 238° |
| 2026-04-27 09:57 | 51.65898 | 4.76575 | 1202 ft | 104 kts | 240° |
| 2026-04-27 09:57 | 51.65635 | 4.75483 | 1198 ft | 108 kts | 250° |
| 2026-04-27 09:58 | 51.65434 | 4.74331 | 1182 ft | 105 kts | 253° |
| 2026-04-27 09:58 | 51.65258 | 4.73197 | 1186 ft | 102 kts | 255° |
| 2026-04-27 09:58 | 51.65107 | 4.72102 | 1209 ft | 100 kts | 255° |
| 2026-04-27 09:58 | 51.64708 | 4.71235 | 1221 ft | 98 kts | 205° |
| 2026-04-27 09:59 | 51.64052 | 4.70949 | 1209 ft | 98 kts | 178° |
| 2026-04-27 09:59 | 51.63388 | 4.70851 | 1209 ft | 94 kts | 185° |
| 2026-04-27 09:59 | 51.62734 | 4.70553 | 1218 ft | 98 kts | 191° |
| 2026-04-27 09:59 | 51.62078 | 4.70141 | 1200 ft | 103 kts | 195° |
| 2026-04-27 10:00 | 51.61412 | 4.69786 | 1172 ft | 98 kts | 189° |
| 2026-04-27 10:00 | 51.60765 | 4.69455 | 1174 ft | 99 kts | 190° |
| 2026-04-27 10:00 | 51.60107 | 4.69124 | 1115 ft | 98 kts | 190° |
| 2026-04-27 10:00 | 51.59468 | 4.68732 | 1131 ft | 101 kts | 198° |
| 2026-04-27 10:01 | 51.58828 | 4.68331 | 1163 ft | 95 kts | 195° |
| 2026-04-27 10:01 | 51.58219 | 4.67932 | 1173 ft | 94 kts | 197° |
| 2026-04-27 10:01 | 51.57627 | 4.67457 | 1171 ft | 94 kts | 207° |
| 2026-04-27 10:01 | 51.57065 | 4.66927 | 1199 ft | 93 kts | 204° |
| 2026-04-27 10:02 | 51.56481 | 4.66380 | 1193 ft | 100 kts | 206° |
| 2026-04-27 10:02 | 51.55894 | 4.65785 | 1196 ft | 99 kts | 212° |
| 2026-04-27 10:02 | 51.55432 | 4.64968 | 1200 ft | 101 kts | 234° |
| 2026-04-27 10:02 | 51.55092 | 4.63958 | 1168 ft | 104 kts | 240° |
| 2026-04-27 10:03 | 51.54696 | 4.63007 | 1173 ft | 100 kts | 226° |
| 2026-04-27 10:03 | 51.54263 | 4.62180 | 1091 ft | 96 kts | 224° |
| 2026-04-27 10:03 | 51.53813 | 4.61394 | 911 ft | 94 kts | 219° |
| 2026-04-27 10:03 | 51.53353 | 4.60675 | 831 ft | 91 kts | 222° |
| 2026-04-27 10:04 | 51.52964 | 4.59909 | 740 ft | 90 kts | 230° |
| 2026-04-27 10:04 | 51.52627 | 4.59084 | 731 ft | 88 kts | 238° |
| 2026-04-27 10:04 | 51.52357 | 4.58201 | 724 ft | 88 kts | 245° |
| 2026-04-27 10:04 | 51.52158 | 4.57299 | 737 ft | 84 kts | 251° |
| 2026-04-27 10:05 | 51.52040 | 4.56379 | 759 ft | 85 kts | 267° |
| 2026-04-27 10:05 | 51.52148 | 4.55472 | 783 ft | 82 kts | 297° |
| 2026-04-27 10:05 | 51.52517 | 4.54802 | 791 ft | 81 kts | 330° |
| 2026-04-27 10:05 | 51.53038 | 4.54418 | 749 ft | 81 kts | 345° |
| 2026-04-27 10:06 | 51.53559 | 4.54179 | 720 ft | 79 kts | 346° |
| 2026-04-27 10:06 | 51.53846 | 4.53460 | 727 ft | 89 kts | 259° |
| 2026-04-27 10:06 | 51.53675 | 4.52548 | 774 ft | 84 kts | 250° |
| 2026-04-27 10:06 | 51.53807 | 4.51747 | 774 ft | 75 kts | 321° |
| 2026-04-27 10:07 | 51.54274 | 4.51464 | 718 ft | 69 kts | 5° |
| 2026-04-27 10:07 | 51.54585 | 4.51914 | 605 ft | 68 kts | 69° |
| 2026-04-27 10:07 | 51.54757 | 4.52626 | 444 ft | 65 kts | 65° |
| 2026-04-27 10:07 | 51.54921 | 4.53225 | 336 ft | 55 kts | 64° |
| 2026-04-27 10:08 | 51.55062 | 4.53769 | 237 ft | 48 kts | 65° |
| 2026-04-27 10:08 | 51.55188 | 4.54202 | 165 ft | 39 kts | 63° |
| 2026-04-27 10:08 | 51.55286 | 4.54562 | 116 ft | 29 kts | 62° |
| 2026-04-27 10:08 | 51.55355 | 4.54813 | 64 ft | 21 kts | 63° |
| 2026-04-27 10:09 | 51.55400 | 4.54983 | 52 ft | 11 kts | 63° |
| 2026-04-27 10:09 | 51.55424 | 4.55073 | 49 ft | 5 kts | 13° |
| 2026-04-27 10:09 | 51.55455 | 4.55064 | 47 ft | 3 kts | 341° |
| 2026-04-27 10:09 | 51.55495 | 4.55075 | 47 ft | 5 kts | 33° |
| 2026-04-27 10:10 | 51.55520 | 4.55145 | 51 ft | 9 kts | 110° |
| 2026-04-27 10:10 | 51.55429 | 4.55234 | 59 ft | 16 kts | 239° |
| 2026-04-27 10:10 | 51.55412 | 4.55078 | 55 ft | 9 kts | 327° |
| 2026-04-27 10:10 | 51.55439 | 4.55062 | 50 ft | 2 kts | 354° |
| 2026-04-27 10:11 | 51.55472 | 4.55062 | 52 ft | 5 kts | 8° |
| 2026-04-27 10:11 | 51.55499 | 4.55073 | 47 ft | 3 kts | 56° |
| 2026-04-27 10:11 | 51.55500 | 4.55086 | 40 ft | 0 kts | 163° |